Time;durP1;ratioP1;P1;durP2;ratioP2;P2;SDS_P1;SDS_P2;PMS_P1;PMS_P2;Temp;Humidity;BMP_temperature;BMP_pressure;BME280_temperature;BME280_humidity;BME280_pressure;Samples;Min_cycle;Max_cycle;Signal;HPM_P1;HPM_P2
2022/09/29 00:02:02;;;;;;;11.10;9.10;;;7.60;99.90;7.10;98623;;;;580426;245;24143;-84
2022/09/29 00:04:26;;;;;;;11.63;9.07;;;7.70;99.90;7.10;98625;;;;566895;247;35327;-84
2022/09/29 00:06:57;;;;;;;13.02;9.02;;;7.70;99.90;7.10;98628;;;;566746;247;35358;-85
2022/09/29 00:09:24;;;;;;;10.98;9.75;;;7.70;99.90;7.20;98633;;;;566794;247;35374;-84
2022/09/29 00:11:55;;;;;;;8.73;7.17;;;7.70;99.90;7.20;98628;;;;571674;247;24189;-84
2022/09/29 00:14:25;;;;;;;7.90;6.40;;;7.80;99.90;7.20;98623;;;;571125;247;24124;-83
2022/09/29 00:16:58;;;;;;;8.40;6.20;;;7.80;99.90;7.30;98628;;;;571590;247;24111;-83
2022/09/29 00:19:26;;;;;;;10.10;6.13;;;7.80;99.90;7.30;98630;;;;570711;248;24118;-84
2022/09/29 00:21:54;;;;;;;7.97;6.40;;;7.90;99.90;7.30;98637;;;;571354;248;24116;-84
2022/09/29 00:24:18;;;;;;;10.30;5.97;;;7.90;99.90;7.30;98633;;;;570565;248;24144;-84
2022/09/29 00:26:52;;;;;;;6.33;5.17;;;7.90;99.90;7.30;98630;;;;570878;248;24133;-85
2022/09/29 00:29:20;;;;;;;6.43;5.30;;;8.00;99.90;7.40;98630;;;;570595;248;24190;-82
2022/09/29 00:31:46;;;;;;;7.70;5.27;;;8.00;99.90;7.40;98633;;;;579194;245;24124;-84
2022/09/29 00:34:17;;;;;;;5.63;5.03;;;8.00;99.90;7.40;98634;;;;570786;248;24151;-84
2022/09/29 00:36:45;;;;;;;7.60;5.13;;;8.00;99.90;7.40;98630;;;;579058;248;24161;-84
2022/09/29 00:39:11;;;;;;;8.03;5.60;;;8.00;99.90;7.50;98632;;;;569998;248;26300;-84
2022/09/29 00:41:39;;;;;;;5.70;4.97;;;8.00;99.90;7.50;98631;;;;570953;248;24116;-83
2022/09/29 00:44:13;;;;;;;6.77;5.27;;;8.10;99.90;7.50;98638;;;;570490;248;24085;-83
2022/09/29 00:46:59;;;;;;;6.80;5.53;;;8.10;99.90;7.50;98637;;;;570730;248;24190;-83
2022/09/29 00:49:45;;;;;;;5.77;5.13;;;8.10;99.90;7.50;98633;;;;570146;248;24127;-85
2022/09/29 00:52:34;;;;;;;7.37;5.70;;;8.10;99.90;7.50;98633;;;;570464;248;24154;-84
2022/09/29 00:55:15;;;;;;;6.67;5.37;;;8.10;99.90;7.50;98633;;;;580224;245;24086;-83
2022/09/29 00:57:53;;;;;;;6.00;5.30;;;8.10;99.90;7.50;98633;;;;581060;244;24170;-83
2022/09/29 01:00:24;;;;;;;6.90;5.50;;;8.10;99.90;7.50;98636;;;;567107;247;24098;-84
2022/09/29 01:02:57;;;;;;;6.20;4.80;;;8.10;99.90;7.50;98632;;;;571790;247;24107;-83
2022/09/29 01:05:24;;;;;;;5.77;4.47;;;8.00;99.90;7.50;98639;;;;570581;247;24261;-84
2022/09/29 01:07:54;;;;;;;5.97;5.37;;;8.00;99.90;7.50;98637;;;;568407;247;24149;-84
2022/09/29 01:10:20;;;;;;;5.57;5.07;;;8.00;99.90;7.50;98637;;;;571088;247;24088;-84
2022/09/29 01:12:48;;;;;;;7.37;5.23;;;8.00;99.90;7.40;98636;;;;580191;245;24116;-83
2022/09/29 01:15:16;;;;;;;5.80;5.10;;;8.00;99.90;7.50;98642;;;;571452;247;24115;-84
2022/09/29 01:17:45;;;;;;;6.03;4.90;;;8.00;99.90;7.40;98635;;;;571408;247;24087;-83
2022/09/29 01:20:19;;;;;;;7.23;4.53;;;8.00;99.90;7.50;98638;;;;571647;247;24167;-83
2022/09/29 01:23:24;;;;;;;6.33;5.17;;;8.00;99.90;7.50;98639;;;;580444;247;24121;-84
2022/09/29 01:26:13;;;;;;;5.63;4.60;;;8.00;99.90;7.50;98637;;;;579899;245;24206;-84
2022/09/29 01:28:58;;;;;;;6.77;5.60;;;8.10;99.90;7.50;98642;;;;571427;247;24190;-83
2022/09/29 01:31:35;;;;;;;7.57;5.17;;;8.10;99.90;7.50;98637;;;;571808;248;24085;-83
2022/09/29 01:34:03;;;;;;;6.03;5.27;;;8.10;99.90;7.60;98643;;;;570951;248;24132;-83
2022/09/29 01:37:08;;;;;;;5.30;4.80;;;8.10;99.90;7.60;98636;;;;571516;248;24100;-81
2022/09/29 01:39:41;;;;;;;6.20;5.23;;;8.10;99.90;7.60;98639;;;;570840;248;24177;-82
2022/09/29 01:42:32;;;;;;;7.17;4.60;;;8.20;99.90;7.60;98645;;;;570362;248;24132;-82
2022/09/29 01:45:31;;;;;;;4.73;4.30;;;8.20;99.90;7.60;98645;;;;571676;248;24099;-82
2022/09/29 01:47:58;;;;;;;5.13;4.63;;;8.20;99.90;7.60;98646;;;;567863;248;24145;-83
2022/09/29 01:50:39;;;;;;;7.23;5.50;;;8.30;99.90;7.70;98648;;;;570490;248;24190;-84
2022/09/29 01:53:21;;;;;;;5.43;4.83;;;8.30;99.90;7.70;98643;;;;571132;248;24174;-83
2022/09/29 01:55:52;;;;;;;5.70;5.20;;;8.30;99.90;7.70;98656;;;;571056;248;24093;-83
2022/09/29 01:58:21;;;;;;;5.07;4.50;;;8.30;99.90;7.70;98652;;;;571042;248;24107;-84
2022/09/29 02:00:49;;;;;;;4.83;4.43;;;8.30;99.90;7.80;98655;;;;565610;248;24190;-83
2022/09/29 02:03:29;;;;;;;4.93;4.43;;;8.30;99.90;7.80;98658;;;;570948;248;24132;-84
2022/09/29 02:06:00;;;;;;;4.13;3.80;;;8.40;99.90;7.80;98656;;;;571121;245;24112;-83
2022/09/29 02:08:31;;;;;;;4.70;4.23;;;8.40;99.90;7.80;98654;;;;571865;247;24190;-84
2022/09/29 02:11:09;;;;;;;4.90;4.50;;;8.40;99.90;7.80;98656;;;;569705;247;24209;-83
2022/09/29 02:13:42;;;;;;;4.63;4.20;;;8.40;99.90;7.80;98655;;;;571683;247;24135;-84
2022/09/29 02:16:13;;;;;;;5.67;4.50;;;8.40;99.90;7.80;98651;;;;570758;247;24132;-83
2022/09/29 02:18:48;;;;;;;4.83;4.20;;;8.50;99.90;7.80;98650;;;;571652;247;24092;-83
2022/09/29 02:21:20;;;;;;;4.93;4.53;;;8.40;99.90;7.80;98653;;;;571487;247;24154;-85
2022/09/29 02:23:49;;;;;;;5.07;4.57;;;8.40;99.90;7.80;98649;;;;571096;247;24202;-83
2022/09/29 02:26:17;;;;;;;5.17;4.67;;;8.40;99.90;7.80;98656;;;;571262;247;24103;-83
2022/09/29 02:28:47;;;;;;;6.10;4.63;;;8.40;99.90;7.80;98650;;;;580926;247;24061;-84
2022/09/29 02:31:16;;;;;;;4.60;4.20;;;8.40;99.90;7.80;98651;;;;572017;247;24131;-84
2022/09/29 02:33:42;;;;;;;7.03;6.43;;;8.40;99.90;7.80;98660;;;;566590;247;35356;-84
2022/09/29 02:36:22;;;;;;;7.62;6.87;;;8.40;99.90;7.70;98654;;;;566614;247;35312;-82
2022/09/29 02:38:56;;;;;;;5.93;5.33;;;8.40;99.90;7.70;98660;;;;579982;239;24135;-82
2022/09/29 02:41:51;;;;;;;4.63;4.23;;;8.40;99.90;7.70;98670;;;;571845;244;24095;-84
2022/09/29 02:44:24;;;;;;;5.47;4.90;;;8.40;99.90;7.80;98666;;;;571369;248;24126;-84
2022/09/29 02:47:13;;;;;;;6.17;5.00;;;8.40;99.90;7.80;98667;;;;570369;248;24099;-83
2022/09/29 02:49:58;;;;;;;6.00;5.20;;;8.40;99.90;7.80;98671;;;;571494;248;24097;-85
2022/09/29 02:52:33;;;;;;;4.93;4.43;;;8.50;99.90;7.80;98669;;;;579692;245;24182;-83
2022/09/29 02:55:08;;;;;;;5.97;4.47;;;8.40;99.90;7.80;98664;;;;569097;248;24119;-83
2022/09/29 02:57:53;;;;;;;7.13;5.00;;;8.50;99.90;7.80;98669;;;;569503;248;24086;-83
2022/09/29 03:00:22;;;;;;;5.57;5.07;;;8.50;99.90;7.80;98667;;;;579662;248;24125;-83
2022/09/29 03:02:50;;;;;;;6.30;5.57;;;8.50;99.90;7.80;98673;;;;579967;245;24148;-84
2022/09/29 03:05:20;;;;;;;6.43;5.30;;;8.40;99.90;7.80;98672;;;;571351;248;24149;-84
2022/09/29 03:07:51;;;;;;;5.20;4.70;;;8.50;99.90;7.80;98672;;;;571381;248;24105;-82
2022/09/29 03:10:21;;;;;;;5.87;5.27;;;8.40;99.90;7.80;98669;;;;571435;248;24190;-83
2022/09/29 03:12:46;;;;;;;7.10;5.67;;;8.40;99.90;7.80;98664;;;;571231;248;24220;-83
2022/09/29 03:15:21;;;;;;;8.30;5.07;;;8.30;99.90;7.80;98675;;;;571068;248;24144;-83
2022/09/29 03:17:46;;;;;;;6.13;4.90;;;8.30;99.90;7.70;98674;;;;570979;246;24139;-83
2022/09/29 03:20:20;;;;;;;6.07;4.80;;;8.40;99.90;7.70;98674;;;;572456;247;24099;-83
2022/09/29 03:22:47;;;;;;;7.70;5.07;;;8.30;99.90;7.70;98680;;;;571558;247;24099;-83
2022/09/29 03:25:16;;;;;;;6.10;5.33;;;8.30;99.90;7.70;98680;;;;571897;247;24117;-82
2022/09/29 03:27:50;;;;;;;6.60;5.10;;;8.30;99.90;7.70;98675;;;;571772;247;24071;-83
2022/09/29 03:30:24;;;;;;;4.93;4.47;;;8.40;99.90;7.70;98679;;;;571508;247;24139;-84
2022/09/29 03:32:49;;;;;;;5.07;4.57;;;8.30;99.90;7.80;98671;;;;575114;247;24087;-82
2022/09/29 03:35:19;;;;;;;6.13;5.23;;;8.30;99.90;7.70;98682;;;;571589;247;24125;-83
2022/09/29 03:37:47;;;;;;;5.60;4.70;;;8.30;99.90;7.70;98678;;;;570985;247;24112;-83
2022/09/29 03:40:15;;;;;;;6.60;4.93;;;8.30;99.90;7.70;98686;;;;571116;247;24092;-84
2022/09/29 03:42:43;;;;;;;5.93;5.37;;;8.30;99.90;7.70;98674;;;;571107;247;24088;-83
2022/09/29 03:45:11;;;;;;;7.55;6.57;;;8.30;99.90;7.70;98681;;;;566003;247;35361;-83
2022/09/29 03:47:39;;;;;;;5.77;5.23;;;8.30;99.90;7.70;98680;;;;571213;247;24076;-84
2022/09/29 03:50:10;;;;;;;5.33;4.83;;;8.30;99.90;7.70;98680;;;;571001;247;24163;-84
2022/09/29 03:52:38;;;;;;;5.40;4.90;;;8.30;99.90;7.70;98682;;;;570745;247;24091;-84
2022/09/29 03:55:04;;;;;;;5.07;4.60;;;8.30;99.90;7.70;98688;;;;579135;248;24103;-83
2022/09/29 03:57:37;;;;;;;8.57;7.13;;;8.30;99.90;7.70;98691;;;;566056;248;38138;-83
2022/09/29 04:00:04;;;;;;;9.40;8.43;;;8.30;99.90;7.70;98696;;;;573990;248;35335;-83
2022/09/29 04:02:34;;;;;;;7.63;6.57;;;8.40;99.90;7.80;98696;;;;579172;247;24135;-84
2022/09/29 04:04:58;;;;;;;8.63;5.20;;;8.30;99.90;7.80;98696;;;;579468;246;24101;-83
2022/09/29 04:07:26;;;;;;;5.93;5.37;;;8.40;99.90;7.80;98695;;;;571182;248;24160;-85
2022/09/29 04:09:54;;;;;;;6.93;5.30;;;8.40;99.90;7.80;98696;;;;570996;248;24113;-84
2022/09/29 04:12:22;;;;;;;7.03;5.63;;;8.40;99.90;7.90;98693;;;;570693;248;24134;-84
2022/09/29 04:14:50;;;;;;;5.77;5.00;;;8.40;99.90;7.90;98702;;;;570921;248;24105;-84
2022/09/29 04:17:20;;;;;;;6.77;5.60;;;8.50;99.90;7.90;98697;;;;570961;248;24070;-84
2022/09/29 04:19:45;;;;;;;5.53;5.00;;;8.50;99.90;7.90;98704;;;;571040;248;24115;-84
2022/09/29 04:22:17;;;;;;;5.50;4.97;;;8.50;99.90;7.90;98696;;;;571421;248;24079;-84
2022/09/29 04:24:44;;;;;;;6.53;5.00;;;8.50;99.90;8.00;98699;;;;570873;248;27356;-85
2022/09/29 04:29:56;;;;;;;5.70;5.20;;;8.50;99.90;8.00;98697;;;;572956;242;24135;-84
2022/09/29 04:32:24;;;;;;;6.17;5.57;;;8.60;99.90;8.00;98700;;;;571934;249;24162;-85
2022/09/29 04:34:52;;;;;;;7.97;5.43;;;8.50;99.90;8.00;98703;;;;566921;249;24145;-83
2022/09/29 04:37:20;;;;;;;5.83;5.23;;;8.50;99.90;7.90;98704;;;;566706;249;24129;-84
2022/09/29 04:39:53;;;;;;;6.83;6.13;;;8.50;99.90;7.90;98706;;;;566500;249;24109;-84
2022/09/29 04:42:17;;;;;;;7.50;5.90;;;8.50;99.90;7.90;98711;;;;574750;249;24185;-83
2022/09/29 04:44:45;;;;;;;7.10;6.40;;;8.50;99.90;7.90;98715;;;;566615;249;24078;-84
2022/09/29 04:47:16;;;;;;;6.43;5.77;;;8.50;99.90;7.90;98720;;;;566535;249;24102;-82
2022/09/29 04:49:44;;;;;;;7.30;5.90;;;8.50;99.90;7.90;98723;;;;575654;244;24141;-83
2022/09/29 04:52:08;;;;;;;8.37;6.27;;;8.50;99.90;7.80;98735;;;;575402;249;24143;-84
2022/09/29 04:54:36;;;;;;;7.23;6.53;;;8.40;99.90;7.80;98734;;;;575735;247;24109;-82
2022/09/29 04:57:04;;;;;;;7.07;6.37;;;8.40;99.90;7.90;98729;;;;575972;247;24118;-84
2022/09/29 04:59:35;;;;;;;7.43;6.30;;;8.40;99.90;7.80;98736;;;;575417;249;24184;-83
2022/09/29 05:02:03;;;;;;;7.77;6.60;;;8.40;99.90;7.80;98734;;;;574995;249;24126;-83
2022/09/29 05:04:29;;;;;;;8.33;6.37;;;8.40;99.90;7.90;98744;;;;582158;243;24082;-83
2022/09/29 05:06:57;;;;;;;12.07;7.07;;;8.40;99.90;7.90;98741;;;;571132;248;24219;-82
2022/09/29 05:09:25;;;;;;;9.83;6.73;;;8.40;99.90;7.90;98740;;;;571016;252;24134;-83
2022/09/29 05:11:52;;;;;;;8.33;6.57;;;8.50;99.90;8.00;98742;;;;570651;252;24186;-83
2022/09/29 05:14:20;;;;;;;8.27;7.17;;;8.60;99.90;8.10;98742;;;;569907;252;24173;-83
2022/09/29 05:16:48;;;;;;;8.70;6.60;;;8.60;99.90;8.10;98748;;;;572312;251;24135;-83
2022/09/29 05:19:16;;;;;;;8.47;6.87;;;8.70;99.90;8.20;98739;;;;571977;251;24151;-82
2022/09/29 05:21:45;;;;;;;9.27;6.80;;;8.70;99.90;8.30;98750;;;;580028;248;24105;-83
2022/09/29 05:24:16;;;;;;;8.20;7.00;;;8.80;99.90;8.30;98743;;;;579565;244;24144;-82
2022/09/29 05:26:40;;;;;;;8.47;6.40;;;8.90;99.90;8.40;98743;;;;579443;248;24104;-82
2022/09/29 05:29:07;;;;;;;9.23;6.50;;;8.90;99.90;8.40;98746;;;;579936;248;24107;-83
2022/09/29 05:31:35;;;;;;;6.90;5.80;;;8.90;99.90;8.40;98739;;;;579965;248;24112;-82
2022/09/29 05:34:03;;;;;;;7.87;6.33;;;8.90;99.90;8.40;98739;;;;580017;248;24143;-82
2022/09/29 05:36:31;;;;;;;13.17;6.57;;;8.90;99.90;8.40;98737;;;;579717;248;24101;-82
2022/09/29 05:38:59;;;;;;;9.43;8.40;;;8.90;99.90;8.40;98731;;;;575107;248;35388;-82
2022/09/29 05:41:27;;;;;;;12.17;7.10;;;8.90;99.90;8.40;98734;;;;580782;246;24111;-81
2022/09/29 05:43:55;;;;;;;6.50;5.90;;;8.90;99.90;8.50;98735;;;;581373;247;24139;-82
2022/09/29 05:46:23;;;;;;;7.20;6.47;;;9.00;99.90;8.50;98738;;;;581049;244;24154;-82
2022/09/29 05:48:50;;;;;;;6.60;5.83;;;9.00;99.90;8.70;98738;;;;580667;247;24104;-82
2022/09/29 05:51:19;;;;;;;10.70;6.40;;;9.10;99.90;9.60;98741;;;;580504;247;24120;-84
2022/09/29 05:53:46;;;;;;;6.93;5.73;;;9.90;99.90;11.00;98752;;;;580292;244;24090;-83
2022/09/29 05:56:18;;;;;;;5.90;5.30;;;11.10;99.90;12.60;98763;;;;580517;247;24124;-84
2022/09/29 05:58:45;;;;;;;8.50;4.23;;;12.60;99.90;14.40;98767;;;;580640;247;24110;-83
2022/09/29 06:01:15;;;;;;;4.40;4.00;;;14.30;99.90;14.80;98769;;;;579991;247;24085;-82
2022/09/29 06:03:43;;;;;;;4.87;4.47;;;15.10;99.90;14.70;98770;;;;580029;247;24160;-84
2022/09/29 06:06:14;;;;;;;4.70;4.30;;;15.20;99.90;14.30;98765;;;;580136;247;24120;-83
2022/09/29 06:08:42;;;;;;;7.00;4.93;;;15.00;99.90;14.10;98760;;;;575270;244;38257;-83
2022/09/29 06:11:07;;;;;;;5.40;4.17;;;14.70;99.90;14.40;98765;;;;580256;247;24085;-83
2022/09/29 06:13:37;;;;;;;4.40;4.10;;;14.80;99.90;15.90;98775;;;;580017;245;24135;-83
2022/09/29 06:16:08;;;;;;;8.70;4.40;;;15.90;99.90;18.00;98787;;;;580177;247;24141;-84
2022/09/29 06:18:36;;;;;;;3.90;3.60;;;17.70;99.90;19.00;98777;;;;580188;243;24091;-84
2022/09/29 06:21:06;;;;;;;6.50;3.80;;;19.00;99.90;19.10;98784;;;;580245;248;24081;-84
2022/09/29 06:23:31;;;;;;;4.67;4.33;;;19.40;99.90;18.50;98780;;;;579717;245;24185;-85
2022/09/29 06:26:00;;;;;;;5.97;3.43;;;19.20;99.90;17.80;98798;;;;580165;248;24084;-85
2022/09/29 06:28:27;;;;;;;4.50;4.10;;;18.70;99.90;17.10;98796;;;;579944;248;24097;-85
2022/09/29 06:31:18;;;;;;;4.23;3.83;;;18.00;99.90;16.60;98804;;;;580130;248;24117;-85
2022/09/29 06:33:47;;;;;;;4.53;4.17;;;16.90;99.90;16.00;98805;;;;580062;244;24147;-84
2022/09/29 06:39:09;;;;;;;4.13;3.83;;;16.40;99.90;15.30;98807;;;;580803;247;24171;-83
2022/09/29 06:41:37;;;;;;;6.37;4.97;;;16.00;99.90;15.10;98809;;;;580615;244;24120;-83
2022/09/29 06:44:05;;;;;;;7.30;5.07;;;15.70;99.90;15.00;98817;;;;580378;248;24209;-84
2022/09/29 06:46:36;;;;;;;5.73;4.90;;;15.60;99.90;14.80;98821;;;;580449;248;24097;-83
2022/09/29 06:49:03;;;;;;;5.68;5.03;;;15.40;99.90;14.70;98829;;;;575044;248;35260;-84
2022/09/29 06:51:29;;;;;;;5.07;4.57;;;15.20;99.90;14.50;98831;;;;580792;248;24077;-84
2022/09/29 06:57:44;;;;;;;5.03;4.57;;;14.80;99.90;13.80;98832;;;;580349;247;24097;-85
2022/09/29 07:00:13;;;;;;;5.93;4.73;;;14.40;99.90;13.70;98835;;;;580911;245;24105;-83
2022/09/29 07:02:39;;;;;;;6.83;4.30;;;14.20;99.90;13.60;98838;;;;581039;244;24178;-84
2022/09/29 07:05:10;;;;;;;7.57;4.50;;;14.00;99.90;13.60;98830;;;;581265;247;24107;-83
2022/09/29 07:07:34;;;;;;;7.87;5.90;;;14.00;99.90;13.70;98838;;;;575573;244;35271;-83
2022/09/29 07:10:06;;;;;;;5.73;4.40;;;14.10;99.90;13.80;98832;;;;581385;244;24408;-82
2022/09/29 07:12:31;;;;;;;6.63;4.47;;;14.40;99.90;14.00;98836;;;;580304;244;24120;-83
2022/09/29 07:14:59;;;;;;;6.37;4.27;;;14.40;99.90;14.20;98836;;;;580915;244;24150;-84
2022/09/29 07:17:30;;;;;;;4.37;3.90;;;14.60;99.90;14.50;98839;;;;581449;247;24159;-83
2022/09/29 07:19:58;;;;;;;5.53;4.20;;;14.80;99.90;14.80;98842;;;;581743;247;24092;-84
2022/09/29 07:22:28;;;;;;;7.53;4.30;;;15.10;99.90;15.50;98846;;;;581269;247;25214;-84
2022/09/29 07:24:54;;;;;;;4.17;3.80;;;17.20;99.90;17.60;98854;;;;580469;247;24139;-84
2022/09/29 07:27:23;;;;;;;3.80;3.50;;;17.20;99.90;20.40;98861;;;;580663;247;24102;-84
2022/09/29 07:29:55;;;;;;;4.03;3.13;;;19.80;99.90;22.70;98853;;;;580856;245;24078;-83
2022/09/29 07:32:20;;;;;;;5.27;3.60;;;22.30;99.90;25.10;98868;;;;580763;247;24122;-83
2022/09/29 07:34:48;;;;;;;4.40;4.00;;;24.80;95.70;26.30;98872;;;;580821;248;24137;-83
2022/09/29 07:37:19;;;;;;;3.70;3.50;;;26.40;85.60;25.80;98881;;;;581449;248;24155;-84
2022/09/29 07:39:47;;;;;;;3.63;3.20;;;26.40;77.20;25.10;98868;;;;581117;248;24071;-81
2022/09/29 07:42:12;;;;;;;6.50;3.37;;;26.00;76.00;26.10;98873;;;;581330;243;23150;-82
2022/09/29 07:44:40;;;;;;;6.93;3.93;;;26.40;75.80;27.40;98871;;;;581297;244;24137;-84
2022/09/29 07:47:11;;;;;;;4.17;3.87;;;27.60;71.00;28.40;98883;;;;580819;248;24156;-83
2022/09/29 07:49:39;;;;;;;3.80;3.57;;;28.70;67.40;29.80;98889;;;;581084;248;23125;-83
2022/09/29 07:52:10;;;;;;;4.63;4.20;;;30.00;62.70;30.70;98887;;;;580892;244;23154;-83
2022/09/29 07:54:34;;;;;;;6.95;4.18;;;31.00;58.80;31.40;98897;;;;580167;243;23140;-83
2022/09/29 07:57:02;;;;;;;6.78;4.78;;;31.70;55.80;32.10;98898;;;;580726;248;24094;-83
2022/09/29 07:59:30;;;;;;;5.00;3.97;;;32.40;54.20;32.60;98901;;;;581026;248;23111;-83
2022/09/29 08:02:03;;;;;;;4.45;4.10;;;33.50;50.70;33.20;98914;;;;580985;244;23121;-83
2022/09/29 08:04:27;;;;;;;3.92;3.62;;;33.50;50.60;33.60;98912;;;;581086;245;23116;-83
2022/09/29 08:06:55;;;;;;;3.47;3.22;;;34.10;49.60;34.10;98917;;;;581859;247;23132;-85
2022/09/29 08:09:23;;;;;;;3.62;3.42;;;34.60;48.10;34.30;98925;;;;581511;244;23106;-81
2022/09/29 08:11:50;;;;;;;4.03;3.83;;;34.70;46.80;34.30;98931;;;;581428;247;23145;-83
2022/09/29 08:14:22;;;;;;;4.12;3.83;;;34.80;46.40;34.50;98937;;;;580491;247;23156;-83
2022/09/29 08:16:46;;;;;;;4.18;3.85;;;35.10;46.20;34.80;98938;;;;580277;247;23144;-83
2022/09/29 08:19:19;;;;;;;3.97;3.75;;;35.80;45.50;35.20;98941;;;;581121;244;26334;-84
2022/09/29 08:21:44;;;;;;;4.15;3.80;;;35.70;45.40;35.60;98949;;;;580941;247;23115;-82
2022/09/29 08:24:11;;;;;;;3.58;3.37;;;36.50;44.70;35.80;98952;;;;580645;247;23129;-84
2022/09/29 08:26:40;;;;;;;3.80;3.50;;;36.50;43.90;36.00;98959;;;;580763;244;23141;-84
2022/09/29 08:29:10;;;;;;;3.90;3.58;;;36.80;43.60;36.20;98959;;;;580248;244;23158;-84
2022/09/29 08:31:36;;;;;;;3.37;3.10;;;37.10;42.60;36.20;98963;;;;580339;247;23146;-84
2022/09/29 08:34:03;;;;;;;3.65;3.37;;;37.10;42.40;36.10;98964;;;;580862;245;23145;-84
2022/09/29 08:36:35;;;;;;;3.50;3.30;;;37.10;42.30;36.10;98964;;;;581380;247;23153;-84
2022/09/29 08:38:59;;;;;;;3.72;3.42;;;37.10;42.10;36.20;98968;;;;580816;245;23110;-83
2022/09/29 08:41:51;;;;;;;3.75;3.45;;;37.10;42.00;36.50;98974;;;;581146;247;23137;-84
2022/09/29 08:44:25;;;;;;;6.25;3.78;;;37.30;41.80;36.10;98984;;;;581024;248;23181;-85
2022/09/29 08:46:52;;;;;;;3.70;3.50;;;37.00;41.70;35.90;98978;;;;580495;244;23099;-83
2022/09/29 08:49:20;;;;;;;3.40;3.20;;;36.90;41.90;36.10;98985;;;;580036;248;23127;-85
2022/09/29 08:51:50;;;;;;;3.25;3.10;;;37.00;41.40;36.00;98994;;;;580019;244;23122;-84
2022/09/29 08:54:24;;;;;;;3.95;3.65;;;37.00;41.30;35.90;99000;;;;580574;244;24163;-83
2022/09/29 08:56:51;;;;;;;3.97;3.78;;;37.00;41.40;35.80;99005;;;;579376;244;24147;-85
2022/09/29 08:59:24;;;;;;;3.78;3.47;;;36.40;42.30;34.90;99003;;;;579884;248;23110;-83
2022/09/29 09:01:54;;;;;;;6.87;4.20;;;36.30;41.80;34.70;99016;;;;579322;248;23175;-84
2022/09/29 09:04:36;;;;;;;3.83;3.50;;;36.00;42.50;35.00;99018;;;;578760;248;23155;-83
2022/09/29 09:07:31;;;;;;;4.37;3.75;;;36.10;42.10;32.40;99025;;;;579252;248;23114;-85
2022/09/29 09:10:05;;;;;;;3.10;3.00;;;34.70;42.60;30.20;99024;;;;579111;244;23108;-84
2022/09/29 09:12:42;;;;;;;4.12;3.72;;;32.30;45.50;29.20;99027;;;;580079;244;23137;-84
2022/09/29 09:15:37;;;;;;;2.97;2.87;;;31.00;47.10;27.40;99022;;;;579391;248;24130;-84
2022/09/29 09:18:23;;;;;;;3.63;3.33;;;29.20;49.30;26.30;99025;;;;581038;244;23128;-84
2022/09/29 09:21:07;;;;;;;3.77;3.57;;;26.60;53.50;25.20;99030;;;;580227;245;23109;-84
2022/09/29 09:23:55;;;;;;;3.23;3.03;;;25.40;55.30;24.10;99029;;;;580852;244;23117;-82
2022/09/29 09:26:32;;;;;;;4.07;3.77;;;25.30;55.20;23.60;99029;;;;580766;244;24085;-83
2022/09/29 09:29:06;;;;;;;3.70;3.50;;;24.70;57.40;23.10;99025;;;;580296;247;24103;-83
2022/09/29 09:31:48;;;;;;;6.43;3.97;;;24.10;58.60;22.80;99038;;;;580601;247;24077;-84
2022/09/29 09:34:25;;;;;;;3.70;3.50;;;23.70;60.00;22.70;99023;;;;580269;245;24093;-83
2022/09/29 09:36:58;;;;;;;3.07;2.87;;;23.50;60.70;22.50;99038;;;;580207;247;24097;-84
2022/09/29 09:39:31;;;;;;;3.37;3.17;;;23.30;62.20;23.00;99037;;;;580202;245;24082;-82
2022/09/29 09:42:03;;;;;;;4.10;3.80;;;23.60;62.20;23.00;99040;;;;580219;245;24109;-84
2022/09/29 09:44:30;;;;;;;5.20;4.17;;;23.80;61.20;22.60;99038;;;;579669;247;24132;-83
2022/09/29 09:47:28;;;;;;;4.60;4.20;;;23.50;61.20;22.10;99035;;;;579989;245;24115;-84
2022/09/29 09:49:59;;;;;;;3.83;3.53;;;23.10;62.40;21.40;99037;;;;577446;247;24094;-84
2022/09/29 09:52:41;;;;;;;3.33;3.13;;;22.50;64.00;20.70;99049;;;;579776;245;24093;-82
2022/09/29 09:55:15;;;;;;;3.70;3.40;;;21.80;65.80;21.20;99042;;;;580473;248;24155;-83
2022/09/29 09:57:48;;;;;;;3.50;3.30;;;21.80;67.30;21.80;99049;;;;581034;244;23118;-83
2022/09/29 10:00:16;;;;;;;3.63;2.87;;;22.40;65.50;22.00;99053;;;;580141;244;24145;-83
2022/09/29 10:02:45;;;;;;;4.10;3.80;;;22.80;64.10;21.60;99049;;;;580981;245;23127;-81
2022/09/29 10:05:15;;;;;;;3.10;2.90;;;22.60;64.10;21.60;99056;;;;580675;244;24121;-83
2022/09/29 10:07:48;;;;;;;3.40;3.17;;;22.50;64.80;21.40;99055;;;;580402;248;24114;-82
2022/09/29 10:10:27;;;;;;;4.30;3.13;;;22.30;65.60;21.00;99058;;;;579753;247;24085;-83
2022/09/29 10:13:04;;;;;;;3.47;3.17;;;21.20;67.10;20.10;99069;;;;580095;244;24155;-81
2022/09/29 10:16:14;;;;;;;5.50;3.63;;;21.10;67.10;19.40;99071;;;;580579;245;24122;-82
2022/09/29 10:18:51;;;;;;;3.10;2.80;;;20.40;69.40;19.00;99077;;;;580196;248;24101;-82
2022/09/29 10:21:37;;;;;;;3.67;3.00;;;19.90;71.50;18.50;99069;;;;580279;247;23106;-83
2022/09/29 10:24:25;;;;;;;3.07;2.87;;;19.40;71.80;17.80;99070;;;;579253;248;24089;-82
2022/09/29 10:26:54;;;;;;;3.77;2.90;;;18.60;73.80;17.40;99078;;;;580648;244;24087;-83
2022/09/29 10:29:41;;;;;;;3.50;3.07;;;18.10;76.00;17.10;99080;;;;582272;243;24088;-81
2022/09/29 10:32:09;;;;;;;4.67;2.90;;;17.80;77.60;17.00;99080;;;;582146;244;24103;-82
2022/09/29 10:34:41;;;;;;;3.30;2.90;;;17.60;78.90;17.20;99084;;;;581312;245;24154;-81
2022/09/29 10:37:12;;;;;;;3.47;2.97;;;17.60;80.90;17.40;99078;;;;581936;245;24091;-82
2022/09/29 10:39:42;;;;;;;3.60;3.30;;;17.80;80.90;17.30;99082;;;;579809;244;24094;-82
2022/09/29 10:42:36;;;;;;;3.47;3.17;;;17.80;81.10;17.40;99087;;;;581010;247;24142;-83
2022/09/29 10:45:07;;;;;;;3.57;3.33;;;17.90;81.80;17.40;99096;;;;580727;244;24085;-83
2022/09/29 10:47:36;;;;;;;2.93;2.73;;;17.90;81.30;17.30;99087;;;;580632;247;24104;-82
2022/09/29 10:50:25;;;;;;;3.60;3.30;;;17.80;81.00;17.30;99089;;;;581354;247;24096;-82
2022/09/29 10:52:53;;;;;;;3.83;3.50;;;17.90;82.10;17.30;99088;;;;580276;247;24092;-81
2022/09/29 10:55:22;;;;;;;3.63;3.00;;;17.80;82.00;17.20;99093;;;;580648;244;24084;-82
2022/09/29 10:57:54;;;;;;;2.97;2.70;;;17.80;82.20;17.10;99095;;;;580306;245;24085;-82
2022/09/29 11:00:36;;;;;;;3.13;2.87;;;17.70;83.00;17.20;99103;;;;580320;244;24131;-83
2022/09/29 11:03:06;;;;;;;3.23;3.03;;;17.70;83.40;17.30;99098;;;;580172;244;24122;-82
2022/09/29 11:05:34;;;;;;;2.73;2.53;;;17.80;83.80;17.40;99099;;;;580001;245;24077;-83
2022/09/29 11:08:06;;;;;;;3.77;3.47;;;18.00;84.70;17.50;99100;;;;580275;244;24193;-83
2022/09/29 11:10:34;;;;;;;2.97;2.53;;;18.00;84.60;17.40;99105;;;;580362;244;24108;-83
2022/09/29 11:13:07;;;;;;;2.70;2.57;;;18.00;83.40;17.20;99107;;;;580142;244;24127;-83
2022/09/29 11:15:40;;;;;;;2.70;2.50;;;17.80;83.30;17.10;99107;;;;576405;247;24091;-83
2022/09/29 11:18:17;;;;;;;2.70;2.47;;;17.70;84.00;17.10;99106;;;;580064;248;24088;-83
2022/09/29 11:20:47;;;;;;;3.23;3.03;;;17.70;84.50;17.20;99106;;;;579234;244;24119;-82
2022/09/29 11:23:22;;;;;;;3.50;3.20;;;17.70;85.10;17.20;99101;;;;579803;245;24140;-83
2022/09/29 11:26:09;;;;;;;5.10;3.07;;;17.70;85.60;16.90;99111;;;;580153;245;24136;-82
2022/09/29 11:28:42;;;;;;;2.90;2.70;;;17.50;85.00;16.50;99111;;;;580009;248;24108;-83
2022/09/29 11:31:43;;;;;;;3.33;3.03;;;17.10;85.80;16.40;99107;;;;579630;248;24136;-82
2022/09/29 11:34:28;;;;;;;3.33;3.10;;;17.00;87.70;16.40;99127;;;;579601;245;24113;-84
2022/09/29 11:37:21;;;;;;;3.40;3.10;;;16.90;89.70;16.20;99118;;;;580285;248;24096;-82
2022/09/29 11:40:12;;;;;;;4.33;2.53;;;16.90;90.10;15.90;99118;;;;581620;245;24087;-82
2022/09/29 11:43:06;;;;;;;4.10;2.97;;;16.20;91.00;15.60;99120;;;;581587;247;24120;-82
2022/09/29 11:45:48;;;;;;;3.30;3.00;;;16.10;91.00;15.20;99127;;;;581709;247;24126;-84
2022/09/29 11:49:03;;;;;;;3.50;3.20;;;15.80;91.70;14.90;99121;;;;556553;256;24156;-81
2022/09/29 11:52:01;;;;;;;2.67;2.43;;;15.50;92.50;14.60;99117;;;;595550;241;24134;-82
2022/09/29 11:55:21;;;;;;;4.07;2.87;;;15.10;93.50;14.40;99124;;;;595511;241;24077;-82
2022/09/29 11:58:00;;;;;;;5.40;3.23;;;14.90;94.80;14.20;99125;;;;583869;242;24116;-81
2022/09/29 12:00:28;;;;;;;3.07;2.83;;;14.70;96.40;14.10;99134;;;;583110;243;24104;-83